Time;durP1;ratioP1;P1;durP2;ratioP2;P2;SDS_P1;SDS_P2;PMS_P1;PMS_P2;Temp;Humidity;BMP_temperature;BMP_pressure;BME280_temperature;BME280_humidity;BME280_pressure;Samples;Min_cycle;Max_cycle;Signal;HPM_P1;HPM_P2
2021/06/14 00:00:30;;;;;;;3.83;2.30;;;;;;;22.18;39.23;102532.97;5007826;28;20206;-76
2021/06/14 00:02:56;;;;;;;3.57;2.27;;;;;;;22.17;39.35;102534.75;4994057;28;20271;-76
2021/06/14 00:05:37;;;;;;;3.50;2.00;;;;;;;22.17;39.04;102532.13;4991632;28;20306;-75
2021/06/14 00:08:06;;;;;;;3.50;2.23;;;;;;;22.15;39.35;102531.25;4992707;28;20589;-75
2021/06/14 00:10:32;;;;;;;3.00;2.13;;;;;;;22.13;39.24;102527.78;4992391;28;20216;-75
2021/06/14 00:12:57;;;;;;;5.03;2.43;;;;;;;22.13;39.10;102522.56;4991123;28;20195;-76
2021/06/14 00:15:24;;;;;;;4.87;2.50;;;;;;;22.12;39.32;102522.56;4991970;28;20190;-75
2021/06/14 00:17:49;;;;;;;5.07;2.23;;;;;;;22.11;39.16;102519.06;5011039;28;20183;-75
2021/06/14 00:20:18;;;;;;;3.30;2.10;;;;;;;22.10;38.89;102521.66;5011935;28;20210;-75
2021/06/14 00:22:45;;;;;;;4.33;2.43;;;;;;;22.10;39.24;102524.28;5012117;28;20190;-75
2021/06/14 00:25:13;;;;;;;4.63;2.60;;;;;;;22.09;38.97;102522.53;5012076;28;20573;-75
2021/06/14 00:27:39;;;;;;;3.40;2.30;;;;;;;22.08;38.98;102523.44;5012022;28;20206;-74
2021/06/14 00:30:05;;;;;;;2.67;2.20;;;;;;;22.07;39.07;102521.69;5008715;28;20237;-74
2021/06/14 00:32:30;;;;;;;3.83;2.53;;;;;;;22.05;38.94;102516.47;5011755;28;20195;-74
2021/06/14 00:34:56;;;;;;;4.03;2.30;;;;;;;22.05;38.86;102520.81;5011850;28;20186;-75
2021/06/14 00:37:21;;;;;;;3.83;2.60;;;;;;;22.04;38.81;102513.84;5011296;28;20175;-74
2021/06/14 00:39:46;;;;;;;3.43;2.27;;;;;;;22.04;39.00;102519.06;5011493;28;20237;-75
2021/06/14 00:42:12;;;;;;;4.83;2.53;;;;;;;22.02;39.01;102508.63;5012431;28;20238;-75
2021/06/14 00:44:37;;;;;;;4.03;2.50;;;;;;;22.03;39.21;102509.50;4999321;28;20202;-76
2021/06/14 00:47:03;;;;;;;6.30;2.70;;;;;;;22.00;39.14;102514.72;4991858;28;20193;-75
2021/06/14 00:49:29;;;;;;;4.33;2.43;;;;;;;21.99;38.85;102513.88;4990263;28;20208;-75
2021/06/14 00:51:54;;;;;;;3.97;2.50;;;;;;;21.98;38.90;102504.28;5006845;28;20264;-75
2021/06/14 00:54:19;;;;;;;5.20;2.53;;;;;;;21.97;39.06;102510.38;5006653;28;20206;-75
2021/06/14 00:56:45;;;;;;;4.30;2.50;;;;;;;21.97;39.09;102506.91;4992783;28;20653;-75
2021/06/14 00:59:11;;;;;;;3.80;2.50;;;;;;;21.95;39.06;102504.31;5006516;28;20284;-75
2021/06/14 01:01:36;;;;;;;3.00;2.37;;;;;;;21.94;39.02;102510.41;5006792;28;20664;-75
2021/06/14 01:04:02;;;;;;;4.40;2.67;;;;;;;21.94;38.89;102514.72;4991724;28;20188;-75
2021/06/14 01:06:27;;;;;;;3.43;2.50;;;;;;;21.92;39.35;102509.50;4991726;28;20175;-74
2021/06/14 01:08:53;;;;;;;3.13;2.27;;;;;;;21.91;38.54;102514.72;4991433;28;20176;-75
2021/06/14 01:11:40;;;;;;;3.40;2.30;;;;;;;21.90;38.76;102513.00;4994861;28;20199;-75
2021/06/14 01:14:22;;;;;;;3.87;2.60;;;;;;;21.88;39.21;102510.38;5011329;28;20163;-74
2021/06/14 01:16:58;;;;;;;3.23;2.77;;;;;;;21.88;38.85;102513.00;5024638;28;20779;-75
2021/06/14 01:19:42;;;;;;;5.50;2.93;;;;;;;21.87;38.74;102511.25;5010843;28;20530;-75
2021/06/14 01:22:10;;;;;;;4.07;2.57;;;;;;;21.86;38.41;102508.63;5011260;28;20231;-75
2021/06/14 01:24:49;;;;;;;3.40;2.73;;;;;;;21.85;39.00;102507.78;5009210;28;20202;-75
2021/06/14 01:27:56;;;;;;;3.23;2.60;;;;;;;21.84;38.85;102505.19;5010875;28;20656;-74
2021/06/14 01:30:24;;;;;;;5.37;2.80;;;;;;;21.82;38.96;102494.72;5008265;28;20718;-75
2021/06/14 01:32:50;;;;;;;5.33;2.60;;;;;;;21.81;38.59;102495.59;5000473;28;20258;-76
2021/06/14 01:35:24;;;;;;;4.00;2.70;;;;;;;21.81;38.72;102494.72;5011192;28;20209;-75
2021/06/14 01:37:58;;;;;;;4.43;2.73;;;;;;;21.80;38.89;102488.66;5024176;28;20171;-75
2021/06/14 01:40:25;;;;;;;4.40;2.43;;;;;;;21.80;38.98;102495.59;5028389;28;20199;-75
2021/06/14 01:42:53;;;;;;;3.97;2.23;;;;;;;21.80;39.23;102487.78;5010727;28;20234;-75
2021/06/14 01:45:20;;;;;;;3.80;2.70;;;;;;;21.79;38.93;102479.06;5025649;28;20182;-74
2021/06/14 01:47:46;;;;;;;4.70;2.60;;;;;;;21.79;38.83;102468.63;5009575;28;20273;-75
2021/06/14 01:50:13;;;;;;;4.30;2.30;;;;;;;21.78;39.23;102466.03;4991839;28;20287;-74
2021/06/14 01:52:39;;;;;;;6.30;2.70;;;;;;;21.79;39.36;102460.81;5005802;28;20688;-75
2021/06/14 01:55:07;;;;;;;2.90;2.50;;;;;;;21.78;39.13;102453.84;5005880;28;20184;-74
2021/06/14 01:57:34;;;;;;;4.67;2.60;;;;;;;21.79;39.57;102459.97;5006073;28;20553;-75
2021/06/14 02:00:00;;;;;;;2.87;2.40;;;;;;;21.78;39.09;102466.03;4989111;28;20673;-75
2021/06/14 02:02:27;;;;;;;2.93;2.60;;;;;;;21.77;39.24;102462.56;4992018;28;20176;-74
2021/06/14 02:04:52;;;;;;;4.37;2.30;;;;;;;21.77;39.19;102461.69;5009036;28;20205;-75
2021/06/14 02:07:19;;;;;;;4.50;2.90;;;;;;;21.76;39.54;102457.34;5008613;28;20652;-75
2021/06/14 02:09:45;;;;;;;4.30;2.67;;;;;;;21.75;39.51;102451.25;5009088;28;20199;-75
2021/06/14 02:12:11;;;;;;;2.93;2.30;;;;;;;21.75;39.26;102447.78;5008899;28;20219;-75
2021/06/14 02:14:39;;;;;;;3.53;2.43;;;;;;;21.75;39.51;102450.41;5009693;28;20196;-75
2021/06/14 02:17:08;;;;;;;4.83;2.63;;;;;;;21.74;39.47;102452.13;5010251;28;20654;-75
2021/06/14 02:19:36;;;;;;;4.70;2.77;;;;;;;21.74;39.62;102446.91;5009873;28;20736;-75
2021/06/14 02:22:03;;;;;;;4.17;2.40;;;;;;;21.73;39.24;102442.56;5009035;28;20555;-76
2021/06/14 02:24:28;;;;;;;3.17;2.40;;;;;;;21.72;39.71;102437.34;5010615;28;20394;-75
2021/06/14 02:26:53;;;;;;;4.50;2.63;;;;;;;21.72;39.28;102437.34;5009192;28;20179;-76
2021/06/14 02:29:19;;;;;;;3.43;2.00;;;;;;;21.71;39.95;102433.88;5024989;28;20179;-76
2021/06/14 02:31:44;;;;;;;3.60;2.43;;;;;;;21.71;39.45;102433.00;5008686;28;20254;-75
2021/06/14 02:34:10;;;;;;;6.03;2.70;;;;;;;21.70;39.05;102426.91;5008658;28;20175;-75
2021/06/14 02:36:37;;;;;;;3.23;2.60;;;;;;;21.69;39.40;102421.72;5009771;28;20234;-76
2021/06/14 02:39:08;;;;;;;3.13;2.30;;;;;;;21.68;39.73;102422.53;5009698;28;20171;-75
2021/06/14 02:41:33;;;;;;;3.00;2.27;;;;;;;21.68;39.59;102419.91;5008585;28;20171;-75
2021/06/14 02:44:04;;;;;;;5.53;2.57;;;;;;;21.66;39.20;102419.91;5010157;28;20180;-75
2021/06/14 02:46:30;;;;;;;2.53;2.33;;;;;;;21.66;39.31;102417.31;5009963;28;20156;-75
2021/06/14 02:48:56;;;;;;;3.20;2.40;;;;;;;21.66;39.65;102422.53;5009548;28;20293;-75
2021/06/14 02:51:21;;;;;;;2.87;2.30;;;;;;;21.66;39.19;102426.88;5009522;28;20199;-75
2021/06/14 02:54:03;;;;;;;3.27;2.30;;;;;;;21.65;39.03;102433.84;5009802;28;20235;-75
2021/06/14 02:56:30;;;;;;;3.53;2.53;;;;;;;21.64;39.51;102436.44;5009961;28;20206;-76
2021/06/14 02:58:56;;;;;;;4.93;2.60;;;;;;;21.64;39.45;102426.00;5010112;28;20182;-75
2021/06/14 03:01:22;;;;;;;3.70;2.40;;;;;;;21.64;39.45;102415.56;5013349;28;20195;-76
2021/06/14 03:03:48;;;;;;;2.77;2.13;;;;;;;21.62;39.33;102418.22;5011998;28;20185;-75
2021/06/14 03:06:16;;;;;;;3.53;2.63;;;;;;;21.64;39.82;102423.41;5013663;28;20190;-75
2021/06/14 03:08:42;;;;;;;3.10;2.50;;;;;;;21.62;39.80;102418.22;5013177;28;20683;-75
2021/06/14 03:11:08;;;;;;;4.30;2.50;;;;;;;21.63;39.57;102424.28;5013298;28;20207;-75
2021/06/14 03:13:34;;;;;;;4.13;2.60;;;;;;;21.61;39.75;102429.47;5012034;28;20746;-76
2021/06/14 03:16:00;;;;;;;3.67;2.77;;;;;;;21.62;39.64;102427.75;5013356;28;20176;-76
2021/06/14 03:18:26;;;;;;;6.03;2.63;;;;;;;21.61;39.57;102431.25;5013265;28;20187;-75
2021/06/14 03:20:56;;;;;;;4.20;2.50;;;;;;;21.62;39.56;102432.97;5011733;28;20205;-76
2021/06/14 03:23:22;;;;;;;9.87;3.20;;;;;;;21.61;39.58;102429.47;5013316;28;20845;-75
2021/06/14 03:25:50;;;;;;;5.53;2.60;;;;;;;21.61;39.89;102431.25;5002592;28;20186;-75
2021/06/14 03:28:16;;;;;;;4.13;2.37;;;;;;;21.60;39.33;102429.50;5009455;28;20551;-75
2021/06/14 03:30:42;;;;;;;3.93;2.70;;;;;;;21.60;39.51;102426.91;5008949;28;20217;-76
2021/06/14 03:33:10;;;;;;;4.13;2.70;;;;;;;21.59;39.57;102423.41;5009842;28;20188;-75
2021/06/14 03:35:36;;;;;;;3.67;2.50;;;;;;;21.59;40.09;102422.53;4992546;28;20183;-75
2021/06/14 03:38:03;;;;;;;4.13;2.63;;;;;;;21.59;39.45;102419.91;4993794;28;20176;-75
2021/06/14 03:40:28;;;;;;;4.33;2.67;;;;;;;21.59;40.08;102414.72;4993205;28;20196;-75
2021/06/14 03:43:02;;;;;;;4.13;2.90;;;;;;;21.58;39.88;102424.28;5008270;28;20551;-75
2021/06/14 03:45:27;;;;;;;4.67;2.30;;;;;;;21.59;39.65;102426.03;4990843;28;20215;-75
2021/06/14 03:47:53;;;;;;;7.00;2.47;;;;;;;21.60;40.04;102416.47;4993209;28;20771;-73
2021/06/14 03:50:18;;;;;;;4.07;2.80;;;;;;;21.62;39.91;102415.59;5007923;28;20212;-76
2021/06/14 03:52:44;;;;;;;4.03;2.30;;;;;;;21.62;40.07;102410.38;4992345;28;20186;-75
2021/06/14 03:55:11;;;;;;;3.43;2.23;;;;;;;21.62;39.99;102418.22;4997328;28;20190;-74
2021/06/14 03:57:37;;;;;;;4.73;2.60;;;;;;;21.62;39.98;102415.59;5012146;28;20255;-75
2021/06/14 04:00:06;;;;;;;3.80;2.40;;;;;;;21.62;39.90;102406.91;5010656;28;20284;-74
2021/06/14 04:02:31;;;;;;;5.13;2.50;;;;;;;21.63;40.05;102406.91;5010822;28;20531;-75
2021/06/14 04:04:57;;;;;;;8.23;2.50;;;;;;;21.62;40.15;102405.16;5010889;28;20182;-73
2021/06/14 04:07:22;;;;;;;4.17;2.53;;;;;;;21.62;39.95;102410.38;5010934;28;20284;-75
2021/06/14 04:09:48;;;;;;;4.13;2.40;;;;;;;21.62;40.09;102401.69;5011856;28;20229;-75
2021/06/14 04:12:13;;;;;;;5.37;2.80;;;;;;;21.63;40.21;102398.19;5026730;28;20207;-75
2021/06/14 04:14:41;;;;;;;3.40;2.30;;;;;;;21.63;40.23;102399.06;5012413;28;20206;-75
2021/06/14 04:17:06;;;;;;;4.43;2.40;;;;;;;21.64;40.10;102392.97;5012200;28;20203;-74
2021/06/14 04:19:32;;;;;;;3.53;2.37;;;;;;;21.64;40.15;102395.59;5011779;28;20256;-75
2021/06/14 04:21:57;;;;;;;4.60;2.40;;;;;;;21.65;40.75;102402.53;5011887;28;20242;-75
2021/06/14 04:24:23;;;;;;;2.83;2.27;;;;;;;21.65;40.54;102407.75;5012142;28;20179;-75
2021/06/14 04:26:49;;;;;;;2.53;2.30;;;;;;;21.66;40.41;102406.03;5011811;28;20245;-75
2021/06/14 04:29:14;;;;;;;3.80;2.23;;;;;;;21.66;40.25;102403.41;5011563;28;20724;-75
2021/06/14 04:31:39;;;;;;;3.53;2.27;;;;;;;21.67;40.06;102406.03;5011616;28;20235;-74
2021/06/14 04:34:04;;;;;;;3.93;2.33;;;;;;;21.67;40.04;102403.41;5011706;28;20233;-75
2021/06/14 04:36:30;;;;;;;3.13;2.47;;;;;;;21.67;40.54;102403.41;5011823;28;20183;-75
2021/06/14 04:38:55;;;;;;;3.27;2.50;;;;;;;21.68;40.21;102401.66;5010156;28;20190;-75
2021/06/14 04:41:20;;;;;;;4.33;2.40;;;;;;;21.69;40.30;102406.91;5026841;28;20210;-75
2021/06/14 04:43:46;;;;;;;4.13;2.17;;;;;;;21.70;40.32;102405.19;5010395;28;20183;-74
2021/06/14 04:46:11;;;;;;;4.37;2.70;;;;;;;21.69;40.25;102404.31;5011614;28;20186;-74
2021/06/14 04:48:36;;;;;;;3.63;2.53;;;;;;;21.70;40.39;102408.66;5026531;28;20377;-74
2021/06/14 04:51:01;;;;;;;3.67;2.27;;;;;;;21.70;40.41;102416.47;5027518;28;20215;-74
2021/06/14 04:53:27;;;;;;;3.73;2.23;;;;;;;21.71;40.11;102419.97;5011778;28;20186;-74
2021/06/14 04:55:53;;;;;;;3.97;2.17;;;;;;;21.72;40.38;102425.19;5011533;28;20645;-74
2021/06/14 04:58:19;;;;;;;2.97;2.30;;;;;;;21.71;40.30;102430.41;5011482;28;20232;-75
2021/06/14 05:00:44;;;;;;;3.50;2.23;;;;;;;21.71;40.14;102415.63;5011040;28;20277;-74
2021/06/14 05:03:10;;;;;;;3.93;2.43;;;;;;;21.71;40.11;102420.84;5011120;28;20183;-74
2021/06/14 05:05:35;;;;;;;3.67;2.50;;;;;;;21.71;40.32;102419.97;5010198;28;20609;-74
2021/06/14 05:08:00;;;;;;;3.20;2.00;;;;;;;21.71;40.05;102428.66;5011137;28;20182;-74
2021/06/14 05:10:26;;;;;;;2.87;2.33;;;;;;;21.72;40.17;102426.91;5010869;28;20750;-74
2021/06/14 05:12:51;;;;;;;3.13;2.17;;;;;;;21.72;40.08;102425.19;5011080;28;20176;-75
2021/06/14 05:15:17;;;;;;;2.43;2.23;;;;;;;21.74;40.51;102426.03;5011154;28;20202;-74
2021/06/14 05:17:42;;;;;;;3.70;2.20;;;;;;;21.72;40.55;102421.69;5010954;28;20207;-75
2021/06/14 05:20:08;;;;;;;2.87;2.30;;;;;;;21.73;40.10;102420.81;5011316;28;20202;-75
2021/06/14 05:22:33;;;;;;;2.53;2.20;;;;;;;21.73;40.28;102428.63;5018559;28;20175;-75
2021/06/14 05:24:59;;;;;;;2.57;2.07;;;;;;;21.73;40.39;102423.41;5032462;28;20164;-75
2021/06/14 05:27:24;;;;;;;3.47;2.30;;;;;;;21.74;40.53;102433.00;4991693;28;20176;-75
2021/06/14 05:29:49;;;;;;;4.07;2.30;;;;;;;21.72;40.20;102422.56;4989446;28;20230;-75
2021/06/14 05:32:15;;;;;;;2.77;2.20;;;;;;;21.73;39.89;102426.91;5006088;28;20229;-75
2021/06/14 05:34:40;;;;;;;4.93;2.00;;;;;;;21.73;40.27;102415.59;4991174;28;20176;-74
2021/06/14 05:37:06;;;;;;;3.17;2.33;;;;;;;21.72;40.65;102414.75;4991201;28;20216;-75
2021/06/14 05:39:31;;;;;;;4.80;2.50;;;;;;;21.73;40.20;102413.88;4989415;28;20675;-75
2021/06/14 05:41:56;;;;;;;4.17;2.33;;;;;;;21.73;40.45;102410.38;4990024;28;20187;-75
2021/06/14 05:44:21;;;;;;;3.93;2.30;;;;;;;21.74;40.13;102404.31;4991074;28;20255;-75
2021/06/14 05:46:47;;;;;;;5.20;2.57;;;;;;;21.73;40.36;102395.63;4989293;28;20283;-75
2021/06/14 05:49:12;;;;;;;5.23;2.37;;;;;;;21.74;40.16;102402.56;5009382;28;20186;-75
2021/06/14 05:51:38;;;;;;;3.97;2.20;;;;;;;21.74;40.36;102402.56;5009955;28;20203;-75
2021/06/14 05:54:04;;;;;;;3.87;2.53;;;;;;;21.75;40.38;102401.69;5010592;28;20306;-76
2021/06/14 05:56:30;;;;;;;6.23;2.70;;;;;;;21.76;40.36;102400.84;5005928;28;20187;-75
2021/06/14 05:58:55;;;;;;;5.07;2.63;;;;;;;21.82;40.89;102399.94;4997326;28;20351;-78
2021/06/14 06:01:20;;;;;;;8.23;3.03;;;;;;;21.86;40.95;102399.94;5011461;28;20297;-78
2021/06/14 06:03:46;;;;;;;5.27;3.07;;;;;;;21.90;41.25;102392.97;5015893;28;20183;-78
2021/06/14 06:06:11;;;;;;;8.80;3.40;;;;;;;21.93;41.34;102382.53;5015551;28;20233;-79
2021/06/14 06:08:37;;;;;;;8.77;3.30;;;;;;;21.95;41.57;102381.66;5014936;28;20186;-77
2021/06/14 06:11:03;;;;;;;5.13;2.90;;;;;;;21.98;41.63;102391.22;5015255;28;20207;-78
2021/06/14 06:13:28;;;;;;;7.63;3.53;;;;;;;22.00;41.43;102392.06;5015602;28;20183;-80
2021/06/14 06:15:54;;;;;;;8.47;3.20;;;;;;;22.01;42.04;102391.19;5015941;28;20555;-78
2021/06/14 06:18:19;;;;;;;5.73;3.17;;;;;;;22.02;41.76;102385.97;5015282;28;20183;-79
2021/06/14 06:20:44;;;;;;;10.87;3.53;;;;;;;22.04;41.74;102386.84;5014951;28;20277;-79
2021/06/14 06:23:10;;;;;;;6.70;3.73;;;;;;;22.07;41.57;102391.19;5015097;28;20175;-78
2021/06/14 06:25:35;;;;;;;7.43;3.50;;;;;;;22.08;41.78;102391.19;5014787;28;20223;-76
2021/06/14 06:28:00;;;;;;;6.70;3.30;;;;;;;22.10;41.69;102393.78;5012943;28;20359;-77
2021/06/14 06:30:28;;;;;;;4.87;2.67;;;;;;;22.12;41.76;102392.06;5011875;28;20202;-78
2021/06/14 06:32:55;;;;;;;5.33;3.03;;;;;;;22.14;41.78;102390.28;5012392;28;20175;-78
2021/06/14 06:35:21;;;;;;;7.67;3.43;;;;;;;22.16;42.21;102388.56;5016104;28;20287;-78
2021/06/14 06:37:46;;;;;;;6.10;2.97;;;;;;;22.17;41.65;102383.34;5017152;28;20201;-77
2021/06/14 06:40:13;;;;;;;6.17;3.30;;;;;;;22.15;41.97;102382.47;5015999;28;20195;-77
2021/06/14 06:42:38;;;;;;;4.43;2.90;;;;;;;22.14;41.80;102370.28;5016598;28;20174;-77
2021/06/14 06:45:05;;;;;;;4.27;2.80;;;;;;;22.15;42.16;102369.41;5016188;28;20190;-77
2021/06/14 06:47:31;;;;;;;6.33;3.03;;;;;;;22.18;42.14;102364.19;5014087;28;20190;-78
2021/06/14 06:49:56;;;;;;;4.57;3.23;;;;;;;22.21;42.31;102366.78;5014212;28;20203;-77
2021/06/14 06:52:21;;;;;;;4.17;2.70;;;;;;;22.23;41.88;102351.09;5015605;28;20563;-77
2021/06/14 06:54:46;;;;;;;6.40;3.27;;;;;;;22.20;41.80;102346.75;5016513;28;20183;-76
2021/06/14 06:57:13;;;;;;;5.07;3.10;;;;;;;22.20;41.91;102344.16;5015031;28;20206;-77
2021/06/14 06:59:38;;;;;;;7.30;2.90;;;;;;;22.20;42.15;102344.16;4993387;28;20231;-77
2021/06/14 07:02:04;;;;;;;5.20;3.10;;;;;;;22.21;42.21;102335.44;5030974;28;20612;-76
2021/06/14 07:04:29;;;;;;;9.67;3.40;;;;;;;22.23;42.06;102337.22;5016759;28;20182;-76
2021/06/14 07:06:54;;;;;;;7.90;3.20;;;;;;;22.23;42.24;102334.59;5017324;28;20183;-76
2021/06/14 07:09:20;;;;;;;6.50;3.40;;;;;;;22.24;42.05;102327.59;5017150;28;20241;-79
2021/06/14 07:11:45;;;;;;;10.50;3.53;;;;;;;22.26;42.04;102331.06;5013333;28;20230;-76
2021/06/14 07:14:10;;;;;;;7.77;3.37;;;;;;;22.35;42.11;102330.19;5033639;28;20703;-72
2021/06/14 07:16:36;;;;;;;7.63;3.50;;;;;;;22.45;42.28;102326.66;5023119;28;20179;-72
2021/06/14 07:19:02;;;;;;;8.20;3.27;;;;;;;22.51;41.99;102323.16;5015980;28;20187;-72
2021/06/14 07:21:28;;;;;;;12.10;3.90;;;;;;;22.53;41.47;102319.66;5015603;28;20191;-72
2021/06/14 07:23:53;;;;;;;5.23;3.33;;;;;;;22.51;41.85;102315.34;5014871;28;20175;-73
2021/06/14 07:26:19;;;;;;;6.10;3.30;;;;;;;22.50;41.57;102308.34;5013965;28;20194;-71
2021/06/14 07:28:44;;;;;;;6.30;3.37;;;;;;;22.53;42.10;102304.00;5016917;28;20175;-74
2021/06/14 07:31:10;;;;;;;7.10;3.63;;;;;;;22.61;41.26;102309.16;5014673;28;20653;-72
2021/06/14 07:33:37;;;;;;;7.57;4.00;;;;;;;22.69;41.26;102305.63;5018923;28;20233;-76
2021/06/14 07:36:07;;;;;;;7.70;3.40;;;;;;;22.71;41.58;102298.66;5017464;28;20189;-72
2021/06/14 07:38:32;;;;;;;7.57;3.63;;;;;;;22.80;40.80;102292.50;5018159;28;20632;-72
2021/06/14 07:40:58;;;;;;;7.03;3.40;;;;;;;22.76;41.31;102299.50;5016139;28;20250;-73
2021/06/14 07:43:24;;;;;;;4.80;3.20;;;;;;;22.61;41.43;102291.72;5012622;28;20183;-77
2021/06/14 07:45:50;;;;;;;5.13;3.57;;;;;;;22.66;41.40;102284.75;5018076;28;20167;-70
2021/06/14 07:48:16;;;;;;;5.47;2.90;;;;;;;22.75;41.20;102291.66;5017959;28;20658;-73
2021/06/14 07:50:43;;;;;;;7.30;3.97;;;;;;;22.76;40.80;102282.94;5017589;28;20207;-74
2021/06/14 07:53:08;;;;;;;6.90;3.70;;;;;;;22.78;40.72;102289.88;5018117;28;20179;-74
2021/06/14 07:55:34;;;;;;;9.33;3.80;;;;;;;22.85;40.82;102286.34;5016023;28;20171;-72
2021/06/14 07:58:00;;;;;;;5.77;3.40;;;;;;;22.90;40.29;102299.38;5017505;28;20178;-73
2021/06/14 08:00:26;;;;;;;5.77;3.60;;;;;;;22.95;40.58;102287.13;4997339;28;20226;-73
2021/06/14 08:02:52;;;;;;;5.77;3.50;;;;;;;23.00;40.38;102291.44;5016266;28;20183;-76
2021/06/14 08:05:19;;;;;;;5.77;3.73;;;;;;;22.99;40.40;102278.41;5015491;28;20186;-76
2021/06/14 08:07:45;;;;;;;5.43;3.30;;;;;;;22.86;40.88;102280.25;5014799;28;20681;-75
2021/06/14 08:10:15;;;;;;;6.60;3.43;;;;;;;22.83;40.80;102272.41;5013706;28;20199;-72
2021/06/14 08:12:45;;;;;;;4.77;3.20;;;;;;;22.90;40.47;102258.44;5013858;28;20222;-73
2021/06/14 08:15:12;;;;;;;7.07;3.57;;;;;;;22.94;40.42;102262.75;5013025;28;20826;-75
2021/06/14 08:17:38;;;;;;;5.57;3.57;;;;;;;22.91;40.37;102251.44;5014097;28;20632;-72
2021/06/14 08:20:12;;;;;;;5.13;3.57;;;;;;;22.94;40.53;102248.81;5012439;28;20282;-71
2021/06/14 08:25:08;;;;;;;6.97;3.43;;;;;;;22.95;40.47;102246.19;5014687;28;20621;-71
2021/06/14 08:27:42;;;;;;;5.33;3.67;;;;;;;22.99;40.21;102241.81;5016595;28;20900;-73
2021/06/14 08:30:14;;;;;;;8.87;4.20;;;;;;;23.14;40.51;102236.41;5015365;28;20257;-73
2021/06/14 08:32:39;;;;;;;8.37;3.67;;;;;;;23.27;40.19;102232.84;5014239;28;20258;-73
2021/06/14 08:35:07;;;;;;;7.10;3.50;;;;;;;23.06;40.16;102220.81;5016777;28;20203;-72
2021/06/14 08:37:33;;;;;;;5.93;3.83;;;;;;;23.00;40.40;102215.66;5014534;28;20175;-70
2021/06/14 08:39:58;;;;;;;6.10;3.50;;;;;;;23.01;40.13;102209.53;5013948;28;20206;-72
2021/06/14 08:42:24;;;;;;;4.63;3.63;;;;;;;23.06;40.33;102204.28;5014663;28;20186;-73
2021/06/14 08:44:51;;;;;;;8.20;4.13;;;;;;;23.09;40.68;102205.13;5015027;28;20175;-73
2021/06/14 08:47:17;;;;;;;7.87;3.60;;;;;;;23.10;40.19;102201.63;5016376;28;20648;-73
2021/06/14 08:49:43;;;;;;;5.60;3.40;;;;;;;23.13;39.92;102190.25;5013228;28;20256;-75
2021/06/14 08:52:09;;;;;;;7.47;3.63;;;;;;;23.16;40.50;102185.00;5012422;28;20237;-75
2021/06/14 08:54:37;;;;;;;5.57;3.50;;;;;;;23.08;40.19;102182.47;5011591;28;20178;-73
2021/06/14 08:57:04;;;;;;;7.53;3.77;;;;;;;22.95;40.68;102182.59;5012140;28;20258;-72
2021/06/14 08:59:30;;;;;;;5.73;3.47;;;;;;;23.02;40.81;102181.66;4993089;28;20231;-74
2021/06/14 09:01:55;;;;;;;5.20;3.57;;;;;;;23.03;40.52;102167.72;5011764;28;20172;-74
2021/06/14 09:04:21;;;;;;;6.00;3.40;;;;;;;23.08;40.15;102172.03;5011727;28;20179;-71
2021/06/14 09:06:46;;;;;;;6.43;3.87;;;;;;;23.06;40.76;102173.75;5011600;28;20668;-73
2021/06/14 09:09:12;;;;;;;5.13;3.67;;;;;;;23.07;40.64;102159.81;5010739;28;20190;-71
2021/06/14 09:11:47;;;;;;;5.17;3.57;;;;;;;23.16;40.11;102159.72;5027342;28;20264;-76
2021/06/14 09:14:20;;;;;;;5.07;3.60;;;;;;;23.24;40.00;102157.06;5026606;28;20178;-76
2021/06/14 09:16:46;;;;;;;5.10;3.53;;;;;;;23.28;40.18;102153.50;5011123;28;20171;-76
2021/06/14 09:19:28;;;;;;;7.57;3.60;;;;;;;23.22;40.51;102133.56;5010923;28;20209;-77
2021/06/14 09:21:57;;;;;;;4.17;3.57;;;;;;;23.27;40.37;102141.31;5011152;28;20175;-76
2021/06/14 09:24:26;;;;;;;6.53;3.83;;;;;;;23.31;40.15;102138.69;5011378;28;20183;-77
2021/06/14 09:26:52;;;;;;;5.17;3.73;;;;;;;23.33;40.03;102139.50;5011078;28;20179;-77
2021/06/14 09:29:26;;;;;;;5.50;3.67;;;;;;;23.34;40.11;102132.53;5011894;28;20179;-76
2021/06/14 09:31:58;;;;;;;4.67;3.20;;;;;;;23.38;39.91;102129.00;5011416;28;20264;-75
2021/06/14 09:34:39;;;;;;;6.17;3.43;;;;;;;23.38;40.00;102129.84;5010451;28;20223;-77
2021/06/14 09:37:07;;;;;;;5.10;3.40;;;;;;;23.39;39.78;102117.66;5011158;28;20591;-75
2021/06/14 09:39:44;;;;;;;4.27;3.10;;;;;;;23.41;39.75;102118.50;5009790;28;20199;-76
2021/06/14 09:42:20;;;;;;;4.73;3.67;;;;;;;23.42;39.97;102118.47;5011202;28;20262;-76
2021/06/14 09:44:47;;;;;;;5.13;3.60;;;;;;;23.43;39.76;102127.19;5011264;28;20258;-74
2021/06/14 09:47:14;;;;;;;5.10;3.60;;;;;;;23.44;39.72;102121.91;5032257;28;20183;-73
2021/06/14 09:49:53;;;;;;;5.55;3.60;;;;;;;23.34;40.02;102109.00;5016446;28;20409;-73
2021/06/14 09:52:22;;;;;;;4.63;3.43;;;;;;;23.30;40.06;102109.94;5017366;28;20174;-73
2021/06/14 09:54:48;;;;;;;4.00;3.23;;;;;;;23.30;40.10;102108.16;5016307;28;20195;-73
2021/06/14 09:57:24;;;;;;;5.97;3.23;;;;;;;23.34;40.11;102103.78;5016459;28;20186;-72
2021/06/14 09:59:49;;;;;;;5.03;3.67;;;;;;;23.31;40.13;102106.41;4994888;28;20231;-74
2021/06/14 10:02:19;;;;;;;6.53;3.30;;;;;;;23.39;40.00;102099.34;5013074;28;20248;-74
2021/06/14 10:04:45;;;;;;;5.73;3.43;;;;;;;23.41;40.19;102101.06;5016642;28;20171;-72
2021/06/14 10:07:16;;;;;;;4.20;3.53;;;;;;;23.44;40.09;102103.63;5017233;28;20525;-73
2021/06/14 10:09:44;;;;;;;5.83;3.63;;;;;;;23.47;39.90;102107.94;5015678;28;20206;-72
2021/06/14 10:12:25;;;;;;;7.90;3.73;;;;;;;23.50;40.21;102092.22;5014470;28;20194;-73
2021/06/14 10:15:06;;;;;;;5.93;3.27;;;;;;;23.51;39.84;102091.31;5015741;28;20183;-73
2021/06/14 10:17:40;;;;;;;6.03;3.70;;;;;;;23.53;39.95;102077.34;5032044;28;20191;-72
2021/06/14 10:20:23;;;;;;;5.07;3.20;;;;;;;23.53;40.05;102071.25;5015625;28;20574;-72
2021/06/14 10:22:51;;;;;;;4.70;3.50;;;;;;;23.57;40.21;102071.19;5016153;28;20648;-73
2021/06/14 10:25:18;;;;;;;6.97;3.40;;;;;;;23.59;40.28;102071.16;5014865;28;20649;-72
2021/06/14 10:27:44;;;;;;;5.57;3.50;;;;;;;23.60;39.94;102075.50;5017135;28;20262;-72
2021/06/14 10:30:12;;;;;;;4.33;3.60;;;;;;;23.61;39.86;102083.34;5015660;28;20227;-73
2021/06/14 10:32:39;;;;;;;6.70;3.30;;;;;;;23.61;39.85;102077.25;5017141;28;20218;-72
2021/06/14 10:35:09;;;;;;;6.00;3.60;;;;;;;23.63;40.01;102080.69;5016881;28;20183;-72
2021/06/14 10:37:42;;;;;;;4.90;3.70;;;;;;;23.64;39.99;102079.81;5017208;28;20189;-72
2021/06/14 10:40:09;;;;;;;9.20;3.83;;;;;;;23.62;40.08;102071.97;5016262;28;20578;-71
2021/06/14 10:42:35;;;;;;;5.50;3.30;;;;;;;23.56;40.24;102064.22;5019701;28;20193;-72
2021/06/14 10:45:01;;;;;;;8.07;3.80;;;;;;;23.55;40.13;102066.84;5019537;28;20265;-72
2021/06/14 10:47:27;;;;;;;6.03;4.00;;;;;;;23.57;40.52;102060.72;5017113;28;20236;-71
2021/06/14 10:49:55;;;;;;;7.17;3.60;;;;;;;23.66;40.27;102059.75;5018120;28;20194;-70
2021/06/14 10:52:21;;;;;;;7.37;4.33;;;;;;;23.69;40.13;102051.81;5017938;28;20187;-70
2021/06/14 10:54:46;;;;;;;6.23;3.20;;;;;;;23.70;40.11;102041.34;5002859;28;20183;-71
2021/06/14 10:57:13;;;;;;;7.53;3.43;;;;;;;23.72;40.31;102049.16;5014326;28;20192;-71
2021/06/14 10:59:43;;;;;;;7.23;3.70;;;;;;;23.74;39.95;102050.00;4978426;28;20247;-69
2021/06/14 11:02:11;;;;;;;6.97;2.97;;;;;;;23.74;39.95;102052.63;4998415;28;20729;-70
2021/06/14 11:04:37;;;;;;;6.97;3.67;;;;;;;23.75;39.92;102043.91;4999299;28;20234;-71
2021/06/14 11:07:03;;;;;;;7.93;4.00;;;;;;;23.76;40.26;102038.63;5005223;28;20175;-71
2021/06/14 11:09:38;;;;;;;5.80;3.40;;;;;;;23.78;40.07;102044.72;5035629;28;20170;-70
2021/06/14 11:12:05;;;;;;;7.63;3.60;;;;;;;23.79;39.99;102037.69;5019014;28;20186;-69
2021/06/14 11:14:32;;;;;;;9.70;3.40;;;;;;;23.80;40.18;102042.91;5018610;28;20262;-70
2021/06/14 11:17:17;;;;;;;5.97;3.30;;;;;;;23.83;40.27;102035.03;5018452;28;20179;-70
2021/06/14 11:19:45;;;;;;;4.57;3.23;;;;;;;23.83;40.11;102039.38;5018093;28;20191;-70
2021/06/14 11:22:11;;;;;;;6.17;3.70;;;;;;;23.85;39.96;102040.25;5021248;28;20588;-71
2021/06/14 11:24:39;;;;;;;5.77;3.30;;;;;;;23.85;39.91;102041.09;5019991;28;20213;-71
2021/06/14 11:27:08;;;;;;;5.30;3.40;;;;;;;23.89;40.02;102041.94;5020984;28;20175;-70